• Join FlightAware (Why Join?)
  • Login
  • US Flag 
08:21PM EDT


 

Airport Tracker/Info


-or-


 

Live Flight TrackerFlight Track Log ✈ N775NC ✈ 17-Oct-2013 ✈ KSAV - KATL

Flight Track Log - Related Links

Times and Time Zones

All times are in EDT time to prevent confusion due to time zone crossing. See the N775NC flight status page for this flight to view local times or setup timezone preferences in your user account.

Time Position Orientation Groundspeed Altitude Reporting Facility
EDT Latitude Longitude Course Direction KTS MPH feet Rate Location/Type
02:41PM 32.1278 -81.3372 277° West 218 251 3,500  Level Jacksonville Center
02:42PM 32.1414 -81.4206 281° West 243 280 5,500 2,520 Climbing Jacksonville Center
02:43PM 32.2758 -81.5066 288° West  Level Estimated
02:43PM 32.1631 -81.5011 288° West 263 303 8,600  Level Jacksonville Center
02:44PM 32.2821 -81.5942 275° West  Level FlightAware Approximate
02:44PM 32.1933 -81.5889 292° West 274 315 10,700  Level Jacksonville Center
02:45PM 32.3197 -81.6700 287° West  Level Estimated
02:45PM 32.2256 -81.6892 291° West 313 360 12,200  Level Jacksonville Center
02:46PM 32.3290 -81.7572 277° West  Level FlightAware Approximate
02:47PM 32.2869 -81.8817 291° West 337 388 16,600  Level Atlanta Center
02:48PM 32.3267 -81.9939 293° West 353 406 18,600 1,980 Climbing Atlanta Center
02:49PM 32.3681 -82.1058 294° West 371 427 20,600 1,740 Climbing Atlanta Center
02:50PM 32.4033 -82.2233 290° West 377 434 22,100 660 Climbing Atlanta Center
02:51PM 32.4322 -82.3556 285° West 390 449 22,000 -60 Descending Atlanta Center
02:52PM 32.4569 -82.4931 282° West 417 480 22,000  Level Atlanta Center
02:53PM 32.5006 -82.6375 290° West 422 486 22,000 -60 Level Atlanta Center
02:54PM 32.5433 -82.7478 295° West 422 486 21,900  Descending Atlanta Center
02:55PM 32.6506 -82.8078 335° Northwest 404 465 22,000 -180 Climbing Atlanta Center
02:56PM 32.7800 -82.8083 360° North 404 465 21,600 -480 Descending Atlanta Center
02:57PM 32.9031 -82.8117 359° North 425 489 21,100 -300 Descending Atlanta Center
02:58PM 33.0283 -82.8147 359° North 435 501 21,000 -60 Descending Atlanta Center
02:59PM 33.1556 -82.8131 North 445 512 21,000  Level Atlanta Center
03:00PM 33.2808 -82.8186 358° North 450 518 21,000  Level Atlanta Center
03:01PM 33.4231 -82.8367 354° North 456 525 21,100  Climbing Atlanta Center
03:02PM 33.4700 -82.9506 296° West 371 427 21,000 -60 Descending Atlanta Center
03:03PM 33.4106 -83.0583 237° Southwest 302 348 21,000  Level Atlanta Center
03:04PM 33.3528 -83.1486 233° Southwest 323 372 21,000 -300 Level Atlanta Center
03:05PM 33.3033 -83.2411 237° Southwest 344 396 20,500 -1,200 Descending Atlanta Center
03:06PM 33.2725 -83.3283 247° West 310 357 18,700 -2,400 Descending Atlanta Center
03:07PM 33.2375 -83.4153 244° Southwest 295 339 15,700 -3,060 Descending Atlanta Center
03:08PM 33.1961 -83.5075 242° Southwest 307 353 12,600 -1,800 Descending Atlanta Center
03:09PM 33.1714 -83.5994 252° West 303 349 12,100 -300 Descending Atlanta Center
03:10PM 33.2114 -83.6789 301° West 250 288 12,000 -60 Descending Atlanta Center
03:11PM 33.2511 -83.7581 301° West 270 311 12,000 -540 Level Atlanta Center
03:12PM 33.2869 -83.8350 299° West 271 312 11,000 -1,380 Descending Atlanta Center
03:13PM 33.3161 -83.9144 294° West 266 306 9,300 -1,500 Descending Atlanta Center
03:14PM 33.3664 -83.9792 313° West 266 306 8,000 -1,500 Descending Atlanta Center
03:15PM 33.4331 -84.0214 332° Northwest 266 306 6,400 -1,860 Descending Atlanta Center
03:16PM 33.5103 -84.0364 351° North 271 312 4,300 -1,740 Descending Atlanta Center
03:17PM 33.5833 -84.0539 349° North 276 318 3,000 -660 Descending Atlanta Center
03:18PM 33.6128 -84.1186 299° West 214 246 3,000  Level Atlanta Center
03:19PM 33.6167 -84.2000 273° West 201 231 3,000  Level Atlanta TRACON
03:20PM 33.6167 -84.2667 270° West 188 216 3,000 -240 Level Atlanta TRACON
03:21PM 33.6167 -84.3167 270° West 160 184 2,600 -540 Descending Atlanta TRACON
03:22PM 33.6167 -84.3667 270° West 129 148 2,000 -720 Descending Atlanta TRACON
03:23PM 33.6167 -84.4000 270° West 136 157 1,200 -840 Descending Atlanta TRACON